Time;durP1;ratioP1;P1;durP2;ratioP2;P2;SDS_P1;SDS_P2;PMS_P1;PMS_P2;Temp;Humidity;BMP_temperature;BMP_pressure;BME280_temperature;BME280_humidity;BME280_pressure;Samples;Min_cycle;Max_cycle;Signal;HPM_P1;HPM_P2
2022/11/01 00:08:22;;;;;;;8.60;6.07;;;18.10;99.90;;;;;;7234442;80;26395;-60
2022/11/01 00:18:25;;;;;;;11.80;6.23;;;18.10;99.90;;;;;;7292462;79;26349;-58
2022/11/01 00:28:28;;;;;;;9.37;5.53;;;18.10;99.90;;;;;;7247951;81;26462;-60
2022/11/01 00:38:31;;;;;;;13.10;6.57;;;18.20;99.90;;;;;;7248201;81;26337;-61
2022/11/01 00:48:33;;;;;;;12.70;5.30;;;18.20;99.90;;;;;;7246782;81;26384;-59
2022/11/01 00:58:36;;;;;;;9.90;4.90;;;18.20;99.90;;;;;;7241837;81;27257;-60
2022/11/01 01:08:38;;;;;;;14.50;5.20;;;18.20;99.90;;;;;;7250257;80;26353;-59
2022/11/01 01:18:41;;;;;;;7.93;4.70;;;18.20;99.90;;;;;;7242585;81;26520;-55
2022/11/01 01:28:43;;;;;;;10.10;4.87;;;18.30;99.90;;;;;;7245987;81;26346;-57
2022/11/01 01:38:46;;;;;;;9.17;4.27;;;18.20;99.90;;;;;;7245914;80;26828;-58
2022/11/01 01:48:51;;;;;;;11.37;5.70;;;18.20;99.90;;;;;;7246622;81;26409;-58
2022/11/01 01:59:06;;;;;;;12.23;4.77;;;18.20;99.90;;;;;;7244295;81;26376;-58
2022/11/01 02:09:09;;;;;;;8.33;4.30;;;18.20;99.90;;;;;;7244453;80;26447;-58
2022/11/01 02:19:37;;;;;;;10.73;4.40;;;18.30;99.90;;;;;;7247465;81;26360;-58
2022/11/01 02:30:06;;;;;;;11.13;4.50;;;18.30;99.90;;;;;;7251108;81;27184;-57
2022/11/01 02:40:18;;;;;;;8.40;4.60;;;18.20;99.90;;;;;;7244653;81;26281;-58
2022/11/01 02:50:21;;;;;;;8.23;4.53;;;18.30;99.90;;;;;;7245535;81;26970;-58
2022/11/01 03:00:27;;;;;;;10.33;5.03;;;18.30;99.90;;;;;;7246544;81;26369;-59
2022/11/01 03:10:44;;;;;;;8.73;4.40;;;18.30;99.90;;;;;;7247350;81;26468;-59
2022/11/01 03:20:50;;;;;;;9.47;4.50;;;18.30;99.90;;;;;;7207371;81;26396;-59
2022/11/01 03:30:59;;;;;;;8.17;3.93;;;18.30;99.90;;;;;;7246544;81;26479;-59
2022/11/01 03:41:04;;;;;;;5.67;3.60;;;18.30;99.90;;;;;;7256052;81;26334;-59
2022/11/01 03:51:06;;;;;;;7.80;3.93;;;18.30;99.90;;;;;;7238484;81;26321;-60
2022/11/01 04:01:10;;;;;;;5.80;3.50;;;18.30;99.90;;;;;;7251982;81;26377;-59
2022/11/01 04:11:13;;;;;;;9.50;4.00;;;18.30;99.90;;;;;;7247838;81;26862;-60
2022/11/01 04:21:21;;;;;;;7.97;3.50;;;18.30;99.90;;;;;;7253598;80;26321;-59
2022/11/01 04:31:28;;;;;;;7.03;3.93;;;18.30;99.90;;;;;;7247006;81;26386;-60
2022/11/01 04:41:31;;;;;;;6.93;3.63;;;18.30;99.90;;;;;;7250573;81;26286;-58
2022/11/01 04:51:33;;;;;;;5.97;3.73;;;18.30;99.90;;;;;;7252438;81;26321;-60
2022/11/01 05:01:36;;;;;;;7.70;3.63;;;18.30;99.90;;;;;;7248052;81;26422;-61
2022/11/01 05:11:38;;;;;;;8.33;3.53;;;18.30;99.90;;;;;;7250911;81;26850;-61
2022/11/01 05:21:41;;;;;;;7.60;3.20;;;18.30;99.90;;;;;;7247823;80;26283;-59
2022/11/01 05:31:43;;;;;;;8.97;3.33;;;18.30;99.90;;;;;;7257110;81;26800;-59
2022/11/01 05:41:46;;;;;;;7.57;3.70;;;18.30;99.90;;;;;;7254110;81;26361;-57
2022/11/01 05:51:48;;;;;;;6.60;3.80;;;18.30;99.90;;;;;;7243388;81;26476;-60
2022/11/01 06:01:51;;;;;;;8.50;3.80;;;18.30;99.90;;;;;;7252243;81;26301;-58
2022/11/01 06:11:53;;;;;;;7.93;3.73;;;18.40;99.90;;;;;;7244691;81;26431;-60
2022/11/01 06:21:56;;;;;;;5.80;3.60;;;18.30;99.90;;;;;;7239184;81;26478;-57
2022/11/01 06:31:59;;;;;;;8.73;3.80;;;18.30;99.90;;;;;;7239184;81;27079;-59
2022/11/01 06:42:01;;;;;;;8.90;3.53;;;18.30;99.90;;;;;;7239649;81;26415;-59
2022/11/01 06:52:04;;;;;;;6.90;3.83;;;18.30;99.90;;;;;;7236814;81;26392;-59
2022/11/01 07:02:08;;;;;;;4.97;3.17;;;18.30;99.90;;;;;;7239456;81;26302;-60
2022/11/01 07:12:10;;;;;;;6.57;3.23;;;18.40;99.90;;;;;;7241985;81;26440;-58
2022/11/01 07:22:13;;;;;;;5.70;2.70;;;18.40;99.90;;;;;;7242561;81;26318;-59
2022/11/01 07:32:16;;;;;;;4.53;2.53;;;18.40;99.90;;;;;;7240101;81;26416;-59
2022/11/01 07:42:18;;;;;;;8.70;3.40;;;18.40;99.90;;;;;;7240796;81;26413;-57
2022/11/01 07:52:21;;;;;;;5.70;3.07;;;18.40;99.90;;;;;;7239910;81;26452;-60
2022/11/01 08:02:23;;;;;;;11.60;3.43;;;18.40;99.90;;;;;;7240515;81;26413;-59
2022/11/01 08:12:26;;;;;;;14.97;3.57;;;18.40;99.90;;;;;;7241391;81;26451;-59
2022/11/01 08:22:29;;;;;;;20.03;4.47;;;18.50;99.90;;;;;;7242059;80;26858;-57
2022/11/01 08:32:31;;;;;;;18.30;3.63;;;18.50;99.90;;;;;;7241146;81;26450;-59
2022/11/01 08:42:34;;;;;;;11.50;2.80;;;18.60;99.90;;;;;;7237738;81;26517;-60
2022/11/01 08:52:36;;;;;;;7.93;2.83;;;18.70;99.90;;;;;;7242316;81;26368;-57
2022/11/01 09:02:39;;;;;;;12.27;3.07;;;18.90;99.90;;;;;;7245231;81;26353;-59
2022/11/01 09:12:42;;;;;;;13.57;3.20;;;19.00;99.90;;;;;;7177962;81;26380;-58
2022/11/01 09:22:45;;;;;;;7.67;2.57;;;19.00;99.90;;;;;;7160780;81;26826;-59
2022/11/01 09:32:47;;;;;;;4.60;2.00;;;18.90;99.90;;;;;;7165543;81;26337;-59
2022/11/01 09:42:51;;;;;;;7.63;1.80;;;19.10;99.90;;;;;;7174296;81;26359;-58
2022/11/01 09:52:59;;;;;;;4.87;1.50;;;19.20;99.90;;;;;;7205053;81;26404;-58
2022/11/01 10:03:06;;;;;;;4.30;1.70;;;19.30;99.90;;;;;;7188930;81;26376;-62
2022/11/01 10:13:36;;;;;;;9.80;2.87;;;19.40;99.90;;;;;;7189822;81;26416;-57
2022/11/01 10:23:53;;;;;;;20.23;4.20;;;19.40;99.90;;;;;;7182069;81;26780;-60
2022/11/01 10:34:04;;;;;;;12.90;6.80;;;19.40;99.90;;;;;;7169627;81;26372;-59
2022/11/01 10:44:10;;;;;;;18.53;11.80;;;19.40;99.90;;;;;;7166522;81;26301;-59
2022/11/01 10:54:19;;;;;;;27.40;20.97;;;19.40;99.90;;;;;;7162638;81;27249;-58
2022/11/01 11:04:23;;;;;;;36.20;22.07;;;19.40;99.90;;;;;;7205672;81;26298;-58
2022/11/01 11:14:30;;;;;;;21.13;14.33;;;19.40;99.90;;;;;;7247995;81;26858;-56
2022/11/01 11:24:38;;;;;;;25.40;16.30;;;19.40;99.90;;;;;;7242649;81;26824;-58
2022/11/01 11:34:41;;;;;;;73.93;50.43;;;19.40;99.90;;;;;;7240680;80;26553;-55
2022/11/01 11:44:46;;;;;;;50.03;40.27;;;19.40;99.90;;;;;;7240792;81;26421;-54
2022/11/01 11:54:49;;;;;;;55.27;41.53;;;19.30;99.90;;;;;;7239698;81;26466;-57
2022/11/01 12:04:55;;;;;;;69.87;49.83;;;19.30;99.90;;;;;;7242129;81;26436;-57
2022/11/01 12:14:59;;;;;;;56.00;41.00;;;19.30;99.90;;;;;;7239895;81;26958;-57
2022/11/01 12:25:04;;;;;;;53.60;29.63;;;19.30;99.90;;;;;;7248145;81;26437;-58
2022/11/01 12:35:10;;;;;;;38.73;25.50;;;19.30;99.90;;;;;;7252337;81;26353;-56
2022/11/01 12:45:21;;;;;;;31.10;22.63;;;19.30;99.90;;;;;;7247542;81;26282;-56
2022/11/01 12:55:35;;;;;;;35.43;19.97;;;19.30;99.90;;;;;;7241892;81;26423;-57
2022/11/01 13:05:52;;;;;;;31.50;16.83;;;19.20;99.90;;;;;;7248001;81;26314;-54
2022/11/01 13:16:04;;;;;;;19.33;13.20;;;19.20;99.90;;;;;;7235616;81;26318;-56
2022/11/01 13:26:12;;;;;;;18.73;10.40;;;19.20;99.90;;;;;;7247386;81;26344;-53
2022/11/01 13:36:31;;;;;;;22.73;12.93;;;19.20;99.90;;;;;;7245090;81;26392;-55
2022/11/01 13:47:07;;;;;;;21.70;8.83;;;19.20;99.90;;;;;;7197498;81;26377;-60
2022/11/01 13:57:12;;;;;;;36.50;8.77;;;19.20;99.90;;;;;;7249496;80;26455;-56
2022/11/01 14:07:16;;;;;;;20.17;6.37;;;19.10;99.90;;;;;;7255207;81;26384;-56
2022/11/01 14:17:22;;;;;;;18.93;5.53;;;19.10;99.90;;;;;;7249799;81;26377;-59
2022/11/01 14:27:45;;;;;;;8.23;4.30;;;19.10;99.90;;;;;;7245609;81;26364;-59
2022/11/01 14:37:51;;;;;;;7.93;3.03;;;19.10;99.90;;;;;;7256109;80;26282;-57
2022/11/01 14:47:57;;;;;;;7.77;3.47;;;19.00;99.90;;;;;;7247667;81;26769;-58
2022/11/01 14:58:18;;;;;;;6.53;3.37;;;19.00;99.90;;;;;;7245768;81;26306;-60
2022/11/01 15:08:29;;;;;;;6.20;3.23;;;18.90;99.90;;;;;;7247219;80;26361;-58
2022/11/01 15:18:33;;;;;;;7.67;2.63;;;18.90;99.90;;;;;;7262147;80;26306;-60
2022/11/01 15:28:39;;;;;;;6.27;2.77;;;18.90;99.90;;;;;;7248177;81;26372;-58
2022/11/01 15:38:53;;;;;;;13.20;3.10;;;18.80;99.90;;;;;;7245915;80;26341;-58
2022/11/01 15:48:59;;;;;;;7.97;2.20;;;18.70;99.90;;;;;;7248052;81;26320;-60
2022/11/01 15:59:04;;;;;;;7.37;1.73;;;18.70;99.90;;;;;;7284722;76;26375;-49
2022/11/01 16:09:10;;;;;;;12.67;2.23;;;18.60;99.90;;;;;;7468400;78;26356;-49
2022/11/01 16:19:30;;;;;;;11.53;2.03;;;18.60;99.90;;;;;;7330177;79;26434;-49
2022/11/01 16:29:41;;;;;;;12.00;1.87;;;18.50;99.90;;;;;;7353826;79;26361;-48
2022/11/01 16:39:45;;;;;;;8.13;1.83;;;18.40;99.90;;;;;;7343749;79;26913;-51
2022/11/01 16:49:50;;;;;;;7.57;2.60;;;18.30;99.90;;;;;;7347166;79;26904;-48
2022/11/01 16:59:54;;;;;;;11.57;2.53;;;18.30;99.90;;;;;;7350364;79;26424;-50
2022/11/01 17:09:57;;;;;;;13.80;2.97;;;18.20;99.90;;;;;;7357742;79;26337;-49
2022/11/01 17:20:02;;;;;;;12.30;2.97;;;18.20;99.90;;;;;;7356745;79;26998;-53
2022/11/01 17:30:05;;;;;;;9.00;2.53;;;18.20;99.90;;;;;;7351642;79;26324;-49
2022/11/01 17:40:19;;;;;;;18.07;2.90;;;18.10;99.90;;;;;;7359857;79;26299;-52
2022/11/01 17:50:22;;;;;;;13.10;3.37;;;18.10;99.90;;;;;;7357597;79;26286;-48
2022/11/01 18:00:24;;;;;;;11.07;2.70;;;18.00;99.90;;;;;;7361380;79;27032;-47
2022/11/01 18:10:42;;;;;;;9.00;2.57;;;18.00;99.90;;;;;;7358511;79;26416;-47
2022/11/01 18:20:51;;;;;;;11.00;2.73;;;18.00;99.90;;;;;;7355624;79;26783;-47
2022/11/01 18:31:22;;;;;;;8.60;2.70;;;18.00;99.90;;;;;;7354187;79;26719;-47
2022/11/01 18:41:25;;;;;;;13.03;2.73;;;17.90;99.90;;;;;;7356083;79;26412;-47
2022/11/01 18:51:30;;;;;;;16.83;2.63;;;17.90;99.90;;;;;;7353388;79;27560;-47
2022/11/01 19:01:32;;;;;;;12.40;2.93;;;17.90;99.90;;;;;;7360186;79;26294;-47
2022/11/01 19:11:35;;;;;;;12.03;2.97;;;17.80;99.90;;;;;;7361381;79;26400;-47
2022/11/01 19:21:38;;;;;;;13.80;3.70;;;17.70;99.90;;;;;;7358617;79;26353;-48
2022/11/01 19:31:43;;;;;;;9.53;3.10;;;17.80;99.90;;;;;;7354854;79;26347;-47
2022/11/01 19:41:46;;;;;;;8.60;2.60;;;17.70;99.90;;;;;;7365893;79;26741;-48
2022/11/01 19:52:04;;;;;;;16.10;2.87;;;17.70;99.90;;;;;;7369433;79;26376;-48
2022/11/01 20:02:14;;;;;;;9.27;3.17;;;17.60;99.90;;;;;;7356859;79;26310;-48
2022/11/01 20:12:17;;;;;;;9.47;2.10;;;17.70;99.90;;;;;;7360086;79;26380;-46
2022/11/01 20:22:19;;;;;;;12.87;4.10;;;17.70;99.90;;;;;;7362138;79;27537;-47
2022/11/01 20:32:22;;;;;;;10.90;2.93;;;17.60;99.90;;;;;;7353091;79;26400;-48
2022/11/01 20:42:24;;;;;;;10.40;2.70;;;17.60;99.90;;;;;;7352331;79;26885;-49
2022/11/01 20:52:27;;;;;;;8.13;2.30;;;17.50;99.90;;;;;;7352526;79;26325;-47
2022/11/01 21:02:29;;;;;;;6.43;2.30;;;17.50;99.90;;;;;;7357931;79;26322;-47
2022/11/01 21:12:46;;;;;;;11.33;2.80;;;17.50;99.90;;;;;;7350921;79;26852;-47
2022/11/01 21:22:50;;;;;;;11.77;2.37;;;17.50;99.90;;;;;;7351109;79;26640;-48
2022/11/01 21:32:52;;;;;;;10.77;2.80;;;17.40;99.90;;;;;;7353424;79;26420;-47
2022/11/01 21:42:56;;;;;;;7.10;2.17;;;17.40;99.90;;;;;;7354076;79;26352;-48
2022/11/01 21:52:59;;;;;;;9.73;2.47;;;17.40;99.90;;;;;;7356055;79;26968;-51
2022/11/01 22:03:01;;;;;;;10.13;2.40;;;17.30;99.90;;;;;;7354088;79;26321;-49
2022/11/01 22:13:04;;;;;;;6.60;2.10;;;17.20;99.90;;;;;;7360037;79;26336;-49
2022/11/01 22:23:07;;;;;;;14.97;4.03;;;17.20;99.90;;;;;;7364533;79;26381;-47
2022/11/01 22:33:10;;;;;;;7.93;2.40;;;17.20;99.90;;;;;;7359880;79;26321;-49
2022/11/01 22:43:15;;;;;;;9.03;2.40;;;17.20;99.90;;;;;;7359641;79;26292;-46
2022/11/01 22:53:23;;;;;;;13.60;3.47;;;17.20;99.90;;;;;;7356536;79;26364;-50
2022/11/01 23:03:32;;;;;;;13.73;2.57;;;17.20;99.90;;;;;;7356935;79;26336;-47
2022/11/01 23:23:57;;;;;;;11.70;2.93;;;17.10;99.90;;;;;;7321659;79;26806;-49
2022/11/01 23:33:59;;;;;;;4.50;1.73;;;17.10;99.90;;;;;;7288744;79;26798;-47
2022/11/01 23:44:09;;;;;;;5.53;1.90;;;17.10;99.90;;;;;;7296555;79;26308;-49
2022/11/01 23:54:15;;;;;;;6.23;2.13;;;17.10;99.90;;;;;;7275922;79;26822;-49
